KOWP

William R Pogue Municipal Airport

Sand Springs, Oklahoma, USA
METAR KOWP 151455Z AUTO 23004KT 10SM VCTS CLR 26/24 A2993 RMK AO2 LTG DSNT E T02630239
Observed Flight Rules
Aug-15 @ 14:55 UTC (5 minutes ago) Visual Flight Rules
Wind Visibility Clouds Conditions
230° at 4 knots 10 miles
  • Clear skies
  • Area Thunderstorm
Temperatures Readings
Current 26°C / 79°F
Dewpoint 24°C / 75°F
Humidity 89%
Altimeter 29.93" Hg
Pressure 1014 hPa
Elevation 272
METAR KOWP 151455Z AUTO 23004KT 10SM VCTS CLR 26/24 A2993 RMK AO2 LTG DSNT E T02630239
Observed Flight Rules
Aug-15 @ 14:55 UTC
(5 minutes ago)
VFR
Wind Visibility
230° at 4 knots 10 miles
Clouds
  • Clear skies
Conditions
  • Area Thunderstorm
Temperature Dewpoint
26°C / 79°F 24°C / 75°F
Humidity Altimeter Pressure
89% 29.93" Hg 1014 hPa